sensor_id;sensor_type;location;lat;lon;timestamp;temperature;humidity
31675;DHT22;18276;45.520;11.018;2022-11-13T00:01:39;13.00;81.10
31675;DHT22;18276;45.520;11.018;2022-11-13T00:04:25;12.90;80.00
31675;DHT22;18276;45.520;11.018;2022-11-13T00:07:11;13.10;76.40
31675;DHT22;18276;45.520;11.018;2022-11-13T00:09:57;13.40;73.60
31675;DHT22;18276;45.520;11.018;2022-11-13T00:12:42;13.70;71.00
31675;DHT22;18276;45.520;11.018;2022-11-13T00:15:28;14.00;69.50
31675;DHT22;18276;45.520;11.018;2022-11-13T00:18:13;14.10;68.50
31675;DHT22;18276;45.520;11.018;2022-11-13T00:21:14;14.30;65.90
31675;DHT22;18276;45.520;11.018;2022-11-13T00:23:59;14.40;64.70
31675;DHT22;18276;45.520;11.018;2022-11-13T00:26:44;14.60;64.20
31675;DHT22;18276;45.520;11.018;2022-11-13T00:29:30;14.70;62.80
31675;DHT22;18276;45.520;11.018;2022-11-13T00:32:15;14.70;60.70
31675;DHT22;18276;45.520;11.018;2022-11-13T00:35:01;14.90;60.40
31675;DHT22;18276;45.520;11.018;2022-11-13T00:37:46;14.90;61.00
31675;DHT22;18276;45.520;11.018;2022-11-13T00:40:33;14.80;61.20
31675;DHT22;18276;45.520;11.018;2022-11-13T00:43:18;14.80;61.50
31675;DHT22;18276;45.520;11.018;2022-11-13T00:46:05;14.70;61.90
31675;DHT22;18276;45.520;11.018;2022-11-13T00:48:50;14.60;62.40
31675;DHT22;18276;45.520;11.018;2022-11-13T00:51:36;14.50;61.50
31675;DHT22;18276;45.520;11.018;2022-11-13T00:54:21;14.50;62.00
31675;DHT22;18276;45.520;11.018;2022-11-13T00:57:07;14.60;61.10
31675;DHT22;18276;45.520;11.018;2022-11-13T00:59:52;14.70;60.90
31675;DHT22;18276;45.520;11.018;2022-11-13T01:02:38;14.80;60.10
31675;DHT22;18276;45.520;11.018;2022-11-13T01:05:24;14.90;60.10
31675;DHT22;18276;45.520;11.018;2022-11-13T01:08:11;15.00;59.50
31675;DHT22;18276;45.520;11.018;2022-11-13T01:10:57;15.00;59.20
31675;DHT22;18276;45.520;11.018;2022-11-13T01:13:45;15.00;59.20
31675;DHT22;18276;45.520;11.018;2022-11-13T01:16:30;15.00;59.10
31675;DHT22;18276;45.520;11.018;2022-11-13T01:19:16;15.00;58.90
31675;DHT22;18276;45.520;11.018;2022-11-13T01:22:01;15.00;58.80
31675;DHT22;18276;45.520;11.018;2022-11-13T01:24:47;15.00;57.80
31675;DHT22;18276;45.520;11.018;2022-11-13T01:27:35;15.20;57.40
31675;DHT22;18276;45.520;11.018;2022-11-13T01:30:21;15.30;56.60
31675;DHT22;18276;45.520;11.018;2022-11-13T01:33:06;15.30;56.70
31675;DHT22;18276;45.520;11.018;2022-11-13T01:35:54;15.30;56.50
31675;DHT22;18276;45.520;11.018;2022-11-13T01:38:43;15.40;55.70
31675;DHT22;18276;45.520;11.018;2022-11-13T01:41:32;15.40;56.00
31675;DHT22;18276;45.520;11.018;2022-11-13T01:44:19;15.40;56.10
31675;DHT22;18276;45.520;11.018;2022-11-13T01:47:04;15.30;56.50
31675;DHT22;18276;45.520;11.018;2022-11-13T01:49:53;15.10;57.00
31675;DHT22;18276;45.520;11.018;2022-11-13T01:52:40;15.00;57.60
31675;DHT22;18276;45.520;11.018;2022-11-13T01:55:26;14.70;58.10
31675;DHT22;18276;45.520;11.018;2022-11-13T01:58:12;14.60;59.30
31675;DHT22;18276;45.520;11.018;2022-11-13T02:00:58;14.50;58.20
31675;DHT22;18276;45.520;11.018;2022-11-13T02:03:43;14.60;58.40
31675;DHT22;18276;45.520;11.018;2022-11-13T02:06:53;14.50;58.70
31675;DHT22;18276;45.520;11.018;2022-11-13T02:09:42;14.50;58.80
31675;DHT22;18276;45.520;11.018;2022-11-13T02:12:37;14.40;58.80
31675;DHT22;18276;45.520;11.018;2022-11-13T02:15:24;14.40;58.50
31675;DHT22;18276;45.520;11.018;2022-11-13T02:18:12;14.40;58.50
31675;DHT22;18276;45.520;11.018;2022-11-13T02:21:07;14.40;58.70
31675;DHT22;18276;45.520;11.018;2022-11-13T02:27:04;14.30;59.30
31675;DHT22;18276;45.520;11.018;2022-11-13T02:29:50;14.10;59.30
31675;DHT22;18276;45.520;11.018;2022-11-13T02:32:45;14.10;59.40
31675;DHT22;18276;45.520;11.018;2022-11-13T02:35:35;14.10;59.20
31675;DHT22;18276;45.520;11.018;2022-11-13T02:38:22;14.00;59.10
31675;DHT22;18276;45.520;11.018;2022-11-13T02:41:07;14.00;59.40
31675;DHT22;18276;45.520;11.018;2022-11-13T02:43:53;13.90;59.50
31675;DHT22;18276;45.520;11.018;2022-11-13T02:46:38;13.90;59.80
31675;DHT22;18276;45.520;11.018;2022-11-13T02:49:24;13.80;60.80
31675;DHT22;18276;45.520;11.018;2022-11-13T02:52:09;13.60;62.00
31675;DHT22;18276;45.520;11.018;2022-11-13T02:54:55;13.50;62.90
31675;DHT22;18276;45.520;11.018;2022-11-13T02:57:40;13.30;63.80
31675;DHT22;18276;45.520;11.018;2022-11-13T03:00:26;13.10;64.90
31675;DHT22;18276;45.520;11.018;2022-11-13T03:03:11;12.90;65.60
31675;DHT22;18276;45.520;11.018;2022-11-13T03:05:57;12.90;65.40
31675;DHT22;18276;45.520;11.018;2022-11-13T03:08:42;13.00;65.00
31675;DHT22;18276;45.520;11.018;2022-11-13T03:11:28;13.20;62.50
31675;DHT22;18276;45.520;11.018;2022-11-13T03:14:13;13.60;60.40
31675;DHT22;18276;45.520;11.018;2022-11-13T03:16:59;13.80;59.90
31675;DHT22;18276;45.520;11.018;2022-11-13T03:19:44;13.90;59.40
31675;DHT22;18276;45.520;11.018;2022-11-13T03:22:30;13.80;59.60
31675;DHT22;18276;45.520;11.018;2022-11-13T03:25:16;13.80;59.80
31675;DHT22;18276;45.520;11.018;2022-11-13T03:28:02;13.70;59.70
31675;DHT22;18276;45.520;11.018;2022-11-13T03:30:47;13.70;60.00
31675;DHT22;18276;45.520;11.018;2022-11-13T03:33:33;13.60;60.20
31675;DHT22;18276;45.520;11.018;2022-11-13T03:36:19;13.50;60.40
31675;DHT22;18276;45.520;11.018;2022-11-13T03:39:04;13.50;60.40
31675;DHT22;18276;45.520;11.018;2022-11-13T03:41:50;13.40;60.80
31675;DHT22;18276;45.520;11.018;2022-11-13T03:44:35;13.30;60.90
31675;DHT22;18276;45.520;11.018;2022-11-13T03:47:21;13.30;61.00
31675;DHT22;18276;45.520;11.018;2022-11-13T03:50:07;13.20;61.00
31675;DHT22;18276;45.520;11.018;2022-11-13T03:52:52;13.20;61.40
31675;DHT22;18276;45.520;11.018;2022-11-13T03:55:38;13.10;61.70
31675;DHT22;18276;45.520;11.018;2022-11-13T03:58:23;13.00;62.00
31675;DHT22;18276;45.520;11.018;2022-11-13T04:01:09;13.00;62.30
31675;DHT22;18276;45.520;11.018;2022-11-13T04:03:54;12.90;62.60
31675;DHT22;18276;45.520;11.018;2022-11-13T04:06:40;12.80;63.00
31675;DHT22;18276;45.520;11.018;2022-11-13T04:09:26;12.70;63.40
31675;DHT22;18276;45.520;11.018;2022-11-13T04:12:12;12.70;63.50
31675;DHT22;18276;45.520;11.018;2022-11-13T04:14:57;12.60;63.70
31675;DHT22;18276;45.520;11.018;2022-11-13T04:17:43;12.60;63.90
31675;DHT22;18276;45.520;11.018;2022-11-13T04:20:28;12.50;64.20
31675;DHT22;18276;45.520;11.018;2022-11-13T04:23:14;12.30;64.80
31675;DHT22;18276;45.520;11.018;2022-11-13T04:26:03;12.20;65.50
31675;DHT22;18276;45.520;11.018;2022-11-13T04:28:49;12.00;66.30
31675;DHT22;18276;45.520;11.018;2022-11-13T04:31:35;11.90;67.50
31675;DHT22;18276;45.520;11.018;2022-11-13T04:34:20;11.70;68.80
31675;DHT22;18276;45.520;11.018;2022-11-13T04:37:06;11.50;69.80
31675;DHT22;18276;45.520;11.018;2022-11-13T04:39:52;11.30;70.80
31675;DHT22;18276;45.520;11.018;2022-11-13T04:42:37;11.20;71.70
31675;DHT22;18276;45.520;11.018;2022-11-13T04:45:35;11.00;72.50
31675;DHT22;18276;45.520;11.018;2022-11-13T04:48:21;10.90;73.50
31675;DHT22;18276;45.520;11.018;2022-11-13T04:51:06;10.80;74.30
31675;DHT22;18276;45.520;11.018;2022-11-13T04:53:52;10.60;75.00
31675;DHT22;18276;45.520;11.018;2022-11-13T04:56:37;10.50;75.60
31675;DHT22;18276;45.520;11.018;2022-11-13T04:59:23;10.40;76.40
31675;DHT22;18276;45.520;11.018;2022-11-13T05:02:08;10.30;77.10
31675;DHT22;18276;45.520;11.018;2022-11-13T05:04:54;10.20;77.70
31675;DHT22;18276;45.520;11.018;2022-11-13T05:07:44;10.20;78.40
31675;DHT22;18276;45.520;11.018;2022-11-13T05:10:30;10.10;79.00
31675;DHT22;18276;45.520;11.018;2022-11-13T05:13:15;10.10;79.60
31675;DHT22;18276;45.520;11.018;2022-11-13T05:16:03;9.90;80.00
31675;DHT22;18276;45.520;11.018;2022-11-13T05:18:49;9.90;80.50
31675;DHT22;18276;45.520;11.018;2022-11-13T05:21:35;9.80;80.80
31675;DHT22;18276;45.520;11.018;2022-11-13T05:24:21;9.80;81.30
31675;DHT22;18276;45.520;11.018;2022-11-13T05:27:06;9.70;81.60
31675;DHT22;18276;45.520;11.018;2022-11-13T05:29:58;9.70;82.20
31675;DHT22;18276;45.520;11.018;2022-11-13T05:32:44;9.70;82.60
31675;DHT22;18276;45.520;11.018;2022-11-13T05:35:29;9.60;82.90
31675;DHT22;18276;45.520;11.018;2022-11-13T05:38:15;9.50;83.20
31675;DHT22;18276;45.520;11.018;2022-11-13T05:41:02;9.60;83.50
31675;DHT22;18276;45.520;11.018;2022-11-13T05:43:49;9.50;83.90
31675;DHT22;18276;45.520;11.018;2022-11-13T05:46:42;9.50;84.00
31675;DHT22;18276;45.520;11.018;2022-11-13T05:49:28;9.50;84.40
31675;DHT22;18276;45.520;11.018;2022-11-13T05:52:13;9.40;84.70
31675;DHT22;18276;45.520;11.018;2022-11-13T05:54:59;9.40;85.00
31675;DHT22;18276;45.520;11.018;2022-11-13T05:57:44;9.40;85.10
31675;DHT22;18276;45.520;11.018;2022-11-13T06:00:30;9.30;85.30
31675;DHT22;18276;45.520;11.018;2022-11-13T06:03:15;9.30;85.70
31675;DHT22;18276;45.520;11.018;2022-11-13T06:06:01;9.30;85.60
31675;DHT22;18276;45.520;11.018;2022-11-13T06:08:47;9.30;85.80
31675;DHT22;18276;45.520;11.018;2022-11-13T06:11:33;9.30;86.40
31675;DHT22;18276;45.520;11.018;2022-11-13T06:14:18;9.20;86.40
31675;DHT22;18276;45.520;11.018;2022-11-13T06:17:04;9.20;86.80
31675;DHT22;18276;45.520;11.018;2022-11-13T06:19:49;9.20;86.70
31675;DHT22;18276;45.520;11.018;2022-11-13T06:22:35;9.30;86.50
31675;DHT22;18276;45.520;11.018;2022-11-13T06:25:21;9.30;86.30
31675;DHT22;18276;45.520;11.018;2022-11-13T06:28:06;9.40;86.20
31675;DHT22;18276;45.520;11.018;2022-11-13T06:30:52;9.40;86.00
31675;DHT22;18276;45.520;11.018;2022-11-13T06:33:38;9.40;86.00
31675;DHT22;18276;45.520;11.018;2022-11-13T06:36:27;9.50;86.00
31675;DHT22;18276;45.520;11.018;2022-11-13T06:39:12;9.50;86.00
31675;DHT22;18276;45.520;11.018;2022-11-13T06:41:58;9.60;86.00
31675;DHT22;18276;45.520;11.018;2022-11-13T06:44:44;9.60;85.90
31675;DHT22;18276;45.520;11.018;2022-11-13T06:47:29;9.70;85.90
31675;DHT22;18276;45.520;11.018;2022-11-13T06:50:15;9.70;85.90
31675;DHT22;18276;45.520;11.018;2022-11-13T06:53:01;9.70;86.00
31675;DHT22;18276;45.520;11.018;2022-11-13T06:55:48;9.70;85.90
31675;DHT22;18276;45.520;11.018;2022-11-13T06:58:34;9.80;86.40
31675;DHT22;18276;45.520;11.018;2022-11-13T07:01:22;10.50;87.50
31675;DHT22;18276;45.520;11.018;2022-11-13T07:04:10;11.90;85.50
31675;DHT22;18276;45.520;11.018;2022-11-13T07:06:56;13.40;82.20
31675;DHT22;18276;45.520;11.018;2022-11-13T07:09:42;14.70;78.30
31675;DHT22;18276;45.520;11.018;2022-11-13T07:12:27;16.10;73.10
31675;DHT22;18276;45.520;11.018;2022-11-13T07:15:13;17.30;69.70
31675;DHT22;18276;45.520;11.018;2022-11-13T07:18:02;18.50;64.30
31675;DHT22;18276;45.520;11.018;2022-11-13T07:20:47;19.40;59.10
31675;DHT22;18276;45.520;11.018;2022-11-13T07:23:34;20.40;57.40
31675;DHT22;18276;45.520;11.018;2022-11-13T07:26:21;21.30;55.00
31675;DHT22;18276;45.520;11.018;2022-11-13T07:29:07;22.10;52.50
31675;DHT22;18276;45.520;11.018;2022-11-13T07:31:52;22.70;49.90
31675;DHT22;18276;45.520;11.018;2022-11-13T07:34:38;22.90;47.50
31675;DHT22;18276;45.520;11.018;2022-11-13T07:37:24;23.20;46.00
31675;DHT22;18276;45.520;11.018;2022-11-13T07:40:11;23.30;43.80
31675;DHT22;18276;45.520;11.018;2022-11-13T07:43:01;23.70;43.40
31675;DHT22;18276;45.520;11.018;2022-11-13T07:45:47;24.10;42.60
31675;DHT22;18276;45.520;11.018;2022-11-13T07:48:39;24.20;42.30
31675;DHT22;18276;45.520;11.018;2022-11-13T07:51:25;24.20;41.90
31675;DHT22;18276;45.520;11.018;2022-11-13T07:54:14;24.10;40.80
31675;DHT22;18276;45.520;11.018;2022-11-13T07:56:59;23.80;41.20
31675;DHT22;18276;45.520;11.018;2022-11-13T07:59:45;23.50;41.50
31675;DHT22;18276;45.520;11.018;2022-11-13T08:02:30;23.20;41.90
31675;DHT22;18276;45.520;11.018;2022-11-13T08:05:16;22.90;42.10
31675;DHT22;18276;45.520;11.018;2022-11-13T08:08:02;22.60;42.70
31675;DHT22;18276;45.520;11.018;2022-11-13T08:10:48;22.50;43.30
31675;DHT22;18276;45.520;11.018;2022-11-13T08:13:34;22.30;43.80
31675;DHT22;18276;45.520;11.018;2022-11-13T08:16:20;22.10;44.10
31675;DHT22;18276;45.520;11.018;2022-11-13T08:19:08;21.60;44.40
31675;DHT22;18276;45.520;11.018;2022-11-13T08:21:53;21.40;45.30
31675;DHT22;18276;45.520;11.018;2022-11-13T08:24:39;21.50;46.40
31675;DHT22;18276;45.520;11.018;2022-11-13T08:27:25;21.70;46.40
31675;DHT22;18276;45.520;11.018;2022-11-13T08:30:11;22.10;46.30
31675;DHT22;18276;45.520;11.018;2022-11-13T08:32:57;22.20;45.70
31675;DHT22;18276;45.520;11.018;2022-11-13T08:35:51;22.40;45.90
31675;DHT22;18276;45.520;11.018;2022-11-13T08:38:37;22.70;45.10
31675;DHT22;18276;45.520;11.018;2022-11-13T08:41:23;22.90;45.10
31675;DHT22;18276;45.520;11.018;2022-11-13T08:44:09;23.20;44.70
31675;DHT22;18276;45.520;11.018;2022-11-13T08:46:57;23.60;43.30
31675;DHT22;18276;45.520;11.018;2022-11-13T08:49:42;23.80;41.90
31675;DHT22;18276;45.520;11.018;2022-11-13T08:52:27;23.80;40.80
31675;DHT22;18276;45.520;11.018;2022-11-13T08:55:13;23.70;39.70
31675;DHT22;18276;45.520;11.018;2022-11-13T08:57:59;23.50;40.20
31675;DHT22;18276;45.520;11.018;2022-11-13T09:00:45;23.80;40.60
31675;DHT22;18276;45.520;11.018;2022-11-13T09:03:30;23.90;39.20
31675;DHT22;18276;45.520;11.018;2022-11-13T09:06:16;24.30;39.20
31675;DHT22;18276;45.520;11.018;2022-11-13T09:09:01;24.80;38.70
31675;DHT22;18276;45.520;11.018;2022-11-13T09:11:48;25.20;37.40
31675;DHT22;18276;45.520;11.018;2022-11-13T09:14:34;25.70;36.50
31675;DHT22;18276;45.520;11.018;2022-11-13T09:17:19;26.30;36.40
31675;DHT22;18276;45.520;11.018;2022-11-13T09:20:04;27.50;35.10
31675;DHT22;18276;45.520;11.018;2022-11-13T09:23:01;28.30;33.70
31675;DHT22;18276;45.520;11.018;2022-11-13T09:25:47;28.90;32.30
31675;DHT22;18276;45.520;11.018;2022-11-13T09:28:33;29.60;30.90
31675;DHT22;18276;45.520;11.018;2022-11-13T09:31:19;29.60;29.80
31675;DHT22;18276;45.520;11.018;2022-11-13T09:34:04;29.10;29.10
31675;DHT22;18276;45.520;11.018;2022-11-13T09:36:49;28.80;29.80
31675;DHT22;18276;45.520;11.018;2022-11-13T09:39:35;29.30;29.50
31675;DHT22;18276;45.520;11.018;2022-11-13T09:42:21;29.20;29.20
31675;DHT22;18276;45.520;11.018;2022-11-13T09:45:09;29.10;29.10
31675;DHT22;18276;45.520;11.018;2022-11-13T09:47:55;28.70;29.00
31675;DHT22;18276;45.520;11.018;2022-11-13T09:50:42;28.50;29.50
31675;DHT22;18276;45.520;11.018;2022-11-13T09:53:29;28.80;29.50
31675;DHT22;18276;45.520;11.018;2022-11-13T09:59:21;29.20;28.30
31675;DHT22;18276;45.520;11.018;2022-11-13T10:08:13;28.30;28.80
31675;DHT22;18276;45.520;11.018;2022-11-13T10:11:21;27.90;29.50
31675;DHT22;18276;45.520;11.018;2022-11-13T10:25:20;27.40;30.10
31675;DHT22;18276;45.520;11.018;2022-11-13T10:28:20;27.20;30.00
31675;DHT22;18276;45.520;11.018;2022-11-13T10:31:27;26.90;30.60
31675;DHT22;18276;45.520;11.018;2022-11-13T10:34:13;27.40;30.70
31675;DHT22;18276;45.520;11.018;2022-11-13T10:39:53;27.20;30.20
31675;DHT22;18276;45.520;11.018;2022-11-13T10:42:41;27.10;31.10
31675;DHT22;18276;45.520;11.018;2022-11-13T10:45:26;27.20;31.00
31675;DHT22;18276;45.520;11.018;2022-11-13T10:48:18;27.50;30.30
31675;DHT22;18276;45.520;11.018;2022-11-13T10:51:27;27.00;30.60
31675;DHT22;18276;45.520;11.018;2022-11-13T10:57:27;26.80;31.10
31675;DHT22;18276;45.520;11.018;2022-11-13T11:03:12;23.60;35.40
31675;DHT22;18276;45.520;11.018;2022-11-13T11:05:58;22.70;37.50
31675;DHT22;18276;45.520;11.018;2022-11-13T11:08:44;24.00;37.50
31675;DHT22;18276;45.520;11.018;2022-11-13T11:11:29;25.70;34.50
31675;DHT22;18276;45.520;11.018;2022-11-13T11:14:36;26.10;32.70
31675;DHT22;18276;45.520;11.018;2022-11-13T11:17:47;26.20;33.50
31675;DHT22;18276;45.520;11.018;2022-11-13T11:20:58;26.80;32.30
31675;DHT22;18276;45.520;11.018;2022-11-13T11:27:00;26.70;31.40
31675;DHT22;18276;45.520;11.018;2022-11-13T11:29:56;26.20;32.00
31675;DHT22;18276;45.520;11.018;2022-11-13T11:32:50;25.80;32.30
31675;DHT22;18276;45.520;11.018;2022-11-13T11:42:03;25.20;33.40
31675;DHT22;18276;45.520;11.018;2022-11-13T11:44:56;25.00;33.30
31675;DHT22;18276;45.520;11.018;2022-11-13T11:47:44;25.20;33.30
31675;DHT22;18276;45.520;11.018;2022-11-13T11:56:57;24.30;34.90
31675;DHT22;18276;45.520;11.018;2022-11-13T12:00:01;24.80;34.70
31675;DHT22;18276;45.520;11.018;2022-11-13T12:03:01;24.60;34.60
31675;DHT22;18276;45.520;11.018;2022-11-13T12:05:56;23.70;35.50
31675;DHT22;18276;45.520;11.018;2022-11-13T12:08:47;23.10;37.10
31675;DHT22;18276;45.520;11.018;2022-11-13T12:11:37;23.20;37.70
31675;DHT22;18276;45.520;11.018;2022-11-13T12:17:25;23.20;37.00
31675;DHT22;18276;45.520;11.018;2022-11-13T12:20:17;22.40;38.40
31675;DHT22;18276;45.520;11.018;2022-11-13T12:34:50;24.30;37.40
31675;DHT22;18276;45.520;11.018;2022-11-13T12:37:41;24.60;35.90
31675;DHT22;18276;45.520;11.018;2022-11-13T12:40:50;24.60;35.90
31675;DHT22;18276;45.520;11.018;2022-11-13T12:43:45;24.10;36.50
31675;DHT22;18276;45.520;11.018;2022-11-13T12:46:33;23.40;37.90
31675;DHT22;18276;45.520;11.018;2022-11-13T12:49:27;23.00;38.80
31675;DHT22;18276;45.520;11.018;2022-11-13T12:55:05;22.30;39.70
31675;DHT22;18276;45.520;11.018;2022-11-13T12:57:51;22.00;40.70
31675;DHT22;18276;45.520;11.018;2022-11-13T13:00:37;21.70;41.20
31675;DHT22;18276;45.520;11.018;2022-11-13T13:13:12;20.20;44.80
31675;DHT22;18276;45.520;11.018;2022-11-13T13:16:07;20.00;45.30
31675;DHT22;18276;45.520;11.018;2022-11-13T13:22:10;20.10;46.30
31675;DHT22;18276;45.520;11.018;2022-11-13T13:25:05;20.30;45.80
31675;DHT22;18276;45.520;11.018;2022-11-13T13:37:12;20.10;47.50
31675;DHT22;18276;45.520;11.018;2022-11-13T13:40:11;20.30;46.80
31675;DHT22;18276;45.520;11.018;2022-11-13T13:46:14;20.30;47.20
31675;DHT22;18276;45.520;11.018;2022-11-13T13:49:14;20.70;46.60
31675;DHT22;18276;45.520;11.018;2022-11-13T13:52:01;20.90;45.60
31675;DHT22;18276;45.520;11.018;2022-11-13T13:54:47;20.50;46.00
31675;DHT22;18276;45.520;11.018;2022-11-13T13:57:39;20.00;47.10
31675;DHT22;18276;45.520;11.018;2022-11-13T14:00:25;19.50;48.20
31675;DHT22;18276;45.520;11.018;2022-11-13T14:03:17;19.10;48.90
31675;DHT22;18276;45.520;11.018;2022-11-13T14:09:16;18.50;50.70
31675;DHT22;18276;45.520;11.018;2022-11-13T14:12:05;18.10;51.80
31675;DHT22;18276;45.520;11.018;2022-11-13T14:14:54;17.80;52.40
31675;DHT22;18276;45.520;11.018;2022-11-13T14:17:40;17.80;52.90
31675;DHT22;18276;45.520;11.018;2022-11-13T14:20:26;17.70;53.20
31675;DHT22;18276;45.520;11.018;2022-11-13T14:23:12;17.50;53.50
31675;DHT22;18276;45.520;11.018;2022-11-13T14:25:58;17.40;54.20
31675;DHT22;18276;45.520;11.018;2022-11-13T14:31:35;17.00;55.50
31675;DHT22;18276;45.520;11.018;2022-11-13T14:34:21;16.70;56.40
31675;DHT22;18276;45.520;11.018;2022-11-13T14:37:34;16.40;57.20
31675;DHT22;18276;45.520;11.018;2022-11-13T14:40:30;16.10;57.80
31675;DHT22;18276;45.520;11.018;2022-11-13T14:43:19;15.80;58.30
31675;DHT22;18276;45.520;11.018;2022-11-13T14:46:40;15.70;58.60
31675;DHT22;18276;45.520;11.018;2022-11-13T14:49:37;15.50;59.40
31675;DHT22;18276;45.520;11.018;2022-11-13T14:52:23;15.40;59.50
31675;DHT22;18276;45.520;11.018;2022-11-13T14:55:18;15.30;59.70
31675;DHT22;18276;45.520;11.018;2022-11-13T14:58:04;15.30;60.10
31675;DHT22;18276;45.520;11.018;2022-11-13T15:00:49;15.30;60.10
31675;DHT22;18276;45.520;11.018;2022-11-13T15:03:35;15.30;60.20
31675;DHT22;18276;45.520;11.018;2022-11-13T15:06:22;15.30;60.30
31675;DHT22;18276;45.520;11.018;2022-11-13T15:09:11;15.20;60.40
31675;DHT22;18276;45.520;11.018;2022-11-13T15:11:57;15.20;60.70
31675;DHT22;18276;45.520;11.018;2022-11-13T15:14:43;15.10;61.90
31675;DHT22;18276;45.520;11.018;2022-11-13T15:17:28;14.90;62.10
31675;DHT22;18276;45.520;11.018;2022-11-13T15:20:21;14.70;62.50
31675;DHT22;18276;45.520;11.018;2022-11-13T15:23:08;14.60;63.80
31675;DHT22;18276;45.520;11.018;2022-11-13T15:25:55;14.40;64.40
31675;DHT22;18276;45.520;11.018;2022-11-13T15:28:41;14.30;64.70
31675;DHT22;18276;45.520;11.018;2022-11-13T15:31:40;14.20;65.40
31675;DHT22;18276;45.520;11.018;2022-11-13T15:34:26;14.10;66.10
31675;DHT22;18276;45.520;11.018;2022-11-13T15:37:14;14.00;66.30
31675;DHT22;18276;45.520;11.018;2022-11-13T15:40:01;13.90;66.50
31675;DHT22;18276;45.520;11.018;2022-11-13T15:42:46;13.90;66.80
31675;DHT22;18276;45.520;11.018;2022-11-13T15:45:32;13.90;67.00
31675;DHT22;18276;45.520;11.018;2022-11-13T15:48:17;13.80;67.30
31675;DHT22;18276;45.520;11.018;2022-11-13T15:51:03;13.80;67.90
31675;DHT22;18276;45.520;11.018;2022-11-13T15:53:55;13.70;68.60
31675;DHT22;18276;45.520;11.018;2022-11-13T15:56:42;13.60;69.30
31675;DHT22;18276;45.520;11.018;2022-11-13T15:59:28;13.60;69.70
31675;DHT22;18276;45.520;11.018;2022-11-13T16:02:13;13.50;70.10
31675;DHT22;18276;45.520;11.018;2022-11-13T16:04:59;13.40;70.50
31675;DHT22;18276;45.520;11.018;2022-11-13T16:07:44;13.30;71.10
31675;DHT22;18276;45.520;11.018;2022-11-13T16:10:30;13.20;71.50
31675;DHT22;18276;45.520;11.018;2022-11-13T16:13:15;13.10;71.80
31675;DHT22;18276;45.520;11.018;2022-11-13T16:16:01;13.00;72.10
31675;DHT22;18276;45.520;11.018;2022-11-13T16:18:47;13.00;72.50
31675;DHT22;18276;45.520;11.018;2022-11-13T16:21:34;12.90;72.90
31675;DHT22;18276;45.520;11.018;2022-11-13T16:24:20;12.80;73.20
31675;DHT22;18276;45.520;11.018;2022-11-13T16:27:13;12.70;73.60
31675;DHT22;18276;45.520;11.018;2022-11-13T16:29:59;12.70;74.20
31675;DHT22;18276;45.520;11.018;2022-11-13T16:32:51;12.60;74.20
31675;DHT22;18276;45.520;11.018;2022-11-13T16:35:37;12.60;74.40
31675;DHT22;18276;45.520;11.018;2022-11-13T16:38:23;12.60;74.50
31675;DHT22;18276;45.520;11.018;2022-11-13T16:41:09;12.60;74.40
31675;DHT22;18276;45.520;11.018;2022-11-13T16:43:55;12.60;74.60
31675;DHT22;18276;45.520;11.018;2022-11-13T16:46:43;12.70;74.70
31675;DHT22;18276;45.520;11.018;2022-11-13T16:49:29;12.70;74.80
31675;DHT22;18276;45.520;11.018;2022-11-13T16:52:15;12.70;74.70
31675;DHT22;18276;45.520;11.018;2022-11-13T16:55:00;12.70;75.50
31675;DHT22;18276;45.520;11.018;2022-11-13T16:57:50;12.70;74.70
31675;DHT22;18276;45.520;11.018;2022-11-13T17:00:36;12.80;74.70
31675;DHT22;18276;45.520;11.018;2022-11-13T17:03:22;12.80;74.80
31675;DHT22;18276;45.520;11.018;2022-11-13T17:06:26;12.80;74.80
31675;DHT22;18276;45.520;11.018;2022-11-13T17:09:12;12.80;75.10
31675;DHT22;18276;45.520;11.018;2022-11-13T17:11:57;12.80;74.90
31675;DHT22;18276;45.520;11.018;2022-11-13T17:14:45;12.80;75.00
31675;DHT22;18276;45.520;11.018;2022-11-13T17:17:31;12.80;75.00
31675;DHT22;18276;45.520;11.018;2022-11-13T17:20:16;12.80;75.00
31675;DHT22;18276;45.520;11.018;2022-11-13T17:23:03;12.80;75.00
31675;DHT22;18276;45.520;11.018;2022-11-13T17:25:48;12.80;75.10
31675;DHT22;18276;45.520;11.018;2022-11-13T17:28:34;12.80;75.20
31675;DHT22;18276;45.520;11.018;2022-11-13T17:31:20;12.80;75.30
31675;DHT22;18276;45.520;11.018;2022-11-13T17:34:05;12.80;75.30
31675;DHT22;18276;45.520;11.018;2022-11-13T17:36:51;12.80;75.20
31675;DHT22;18276;45.520;11.018;2022-11-13T17:39:38;12.80;75.30
31675;DHT22;18276;45.520;11.018;2022-11-13T17:42:24;12.80;75.40
31675;DHT22;18276;45.520;11.018;2022-11-13T17:45:09;12.70;75.40
31675;DHT22;18276;45.520;11.018;2022-11-13T17:47:55;12.70;75.60
31675;DHT22;18276;45.520;11.018;2022-11-13T17:50:40;12.70;75.80
31675;DHT22;18276;45.520;11.018;2022-11-13T17:53:26;12.70;75.80
31675;DHT22;18276;45.520;11.018;2022-11-13T17:56:13;12.70;76.00
31675;DHT22;18276;45.520;11.018;2022-11-13T17:58:58;12.70;75.80
31675;DHT22;18276;45.520;11.018;2022-11-13T18:01:44;12.70;75.70
31675;DHT22;18276;45.520;11.018;2022-11-13T18:04:29;12.70;75.70
31675;DHT22;18276;45.520;11.018;2022-11-13T18:07:15;12.60;75.70
31675;DHT22;18276;45.520;11.018;2022-11-13T18:10:01;12.60;75.80
31675;DHT22;18276;45.520;11.018;2022-11-13T18:12:47;12.60;76.00
31675;DHT22;18276;45.520;11.018;2022-11-13T18:15:36;12.60;76.30
31675;DHT22;18276;45.520;11.018;2022-11-13T18:18:21;12.50;76.60
31675;DHT22;18276;45.520;11.018;2022-11-13T18:21:17;12.50;76.70
31675;DHT22;18276;45.520;11.018;2022-11-13T18:24:12;12.50;76.90
31675;DHT22;18276;45.520;11.018;2022-11-13T18:26:57;12.50;77.20
31675;DHT22;18276;45.520;11.018;2022-11-13T18:29:43;12.40;77.70
31675;DHT22;18276;45.520;11.018;2022-11-13T18:32:28;12.40;77.80
31675;DHT22;18276;45.520;11.018;2022-11-13T18:35:14;12.40;78.00
31675;DHT22;18276;45.520;11.018;2022-11-13T18:37:59;12.40;78.80
31675;DHT22;18276;45.520;11.018;2022-11-13T18:40:45;12.40;78.30
31675;DHT22;18276;45.520;11.018;2022-11-13T18:43:31;12.30;78.20
31675;DHT22;18276;45.520;11.018;2022-11-13T18:46:19;12.40;78.30
31675;DHT22;18276;45.520;11.018;2022-11-13T18:49:04;12.40;78.40
31675;DHT22;18276;45.520;11.018;2022-11-13T18:51:51;12.40;78.30
31675;DHT22;18276;45.520;11.018;2022-11-13T18:54:37;12.40;78.50
31675;DHT22;18276;45.520;11.018;2022-11-13T18:57:22;12.40;78.50
31675;DHT22;18276;45.520;11.018;2022-11-13T19:00:08;12.40;78.50
31675;DHT22;18276;45.520;11.018;2022-11-13T19:02:54;12.50;78.50